createdAt,value
2019-01-11T00:01:25.729Z,98153.73
2019-01-11T00:03:32.204Z,98144.30
2019-01-11T00:05:38.609Z,98143.48
2019-01-11T00:07:45.325Z,98152.11
2019-01-11T00:09:51.869Z,98144.78
2019-01-11T00:12:00.432Z,98149.96
2019-01-11T00:14:07.090Z,98145.52
2019-01-11T00:16:13.399Z,98139.97
2019-01-11T00:18:19.721Z,98147.98
2019-01-11T00:20:26.087Z,98150.97
2019-01-11T00:22:32.545Z,98147.53
2019-01-11T00:24:38.758Z,98142.61
2019-01-11T00:26:45.295Z,98143.95
2019-01-11T00:28:51.650Z,98150.91
2019-01-11T00:30:58.384Z,98147.04
2019-01-11T00:33:05.033Z,98139.63
2019-01-11T00:35:11.967Z,98140.47
2019-01-11T00:37:18.418Z,98141.28
2019-01-11T00:39:24.972Z,98129.17
2019-01-11T00:41:31.390Z,98130.42
2019-01-11T00:43:38.189Z,98131.86
2019-01-11T00:45:44.854Z,98133.55
2019-01-11T00:47:51.763Z,98126.59
2019-01-11T00:49:58.790Z,98124.66
2019-01-11T00:52:05.471Z,98125.91
2019-01-11T00:54:11.988Z,98120.38
2019-01-11T00:56:18.844Z,98121.67
2019-01-11T00:58:25.431Z,98115.19
2019-01-11T01:00:32.121Z,98115.19
2019-01-11T01:02:39.188Z,98109.52
2019-01-11T01:04:45.986Z,98113.41
2019-01-11T01:06:53.453Z,98115.95
2019-01-11T01:08:59.950Z,98110.41
2019-01-11T01:11:06.757Z,98111.75
2019-01-11T01:13:13.649Z,98111.75
2019-01-11T01:15:20.993Z,98112.95
2019-01-11T01:17:27.836Z,98113.80
2019-01-11T01:19:34.507Z,98112.50
2019-01-11T01:21:40.829Z,98110.31
2019-01-11T01:23:47.283Z,98109.88
2019-01-11T01:25:53.602Z,98111.12
2019-01-11T01:28:00.125Z,98101.64
2019-01-11T01:30:10.171Z,98109.83
2019-01-11T01:32:16.437Z,98098.52
2019-01-11T01:34:24.822Z,98100.66
2019-01-11T01:36:31.580Z,98095.97
2019-01-11T01:38:37.846Z,98090.74
2019-01-11T01:40:44.843Z,98092.88
2019-01-11T01:42:51.370Z,98088.00
2019-01-11T01:44:59.837Z,98083.35
2019-01-11T01:47:06.776Z,98081.95
2019-01-11T01:49:14.542Z,98085.89
2019-01-11T01:51:21.143Z,98088.04
2019-01-11T01:53:27.748Z,98082.86
2019-01-11T01:55:34.165Z,98082.52
2019-01-11T01:57:40.628Z,98086.00
2019-01-11T01:59:47.224Z,98085.11
2019-01-11T02:01:54.301Z,98082.52
2019-01-11T02:04:00.850Z,98085.16
2019-01-11T02:06:07.979Z,98086.45
2019-01-11T02:08:14.443Z,98080.86
2019-01-11T02:10:21.117Z,98081.63
2019-01-11T02:12:28.145Z,98083.30
2019-01-11T02:14:34.674Z,98084.27
2019-01-11T02:16:40.998Z,98081.32
2019-01-11T02:18:47.896Z,98080.02
2019-01-11T02:20:54.481Z,98083.91
2019-01-11T02:23:01.125Z,98080.47
2019-01-11T02:25:08.280Z,98084.77
2019-01-11T02:27:15.664Z,98085.80
2019-01-11T02:29:21.811Z,98084.11
2019-01-11T02:31:28.563Z,98081.02
2019-01-11T02:33:35.379Z,98081.11
2019-01-11T02:35:41.881Z,98078.62
2019-01-11T02:37:48.502Z,98082.52
2019-01-11T02:39:55.115Z,98077.88
2019-01-11T02:42:01.756Z,98070.41
2019-01-11T02:44:08.587Z,98072.09
2019-01-11T02:46:14.867Z,98075.64
2019-01-11T02:48:21.586Z,98070.00
2019-01-11T02:50:28.236Z,98062.52
2019-01-11T02:52:34.639Z,98066.91
2019-01-11T02:54:40.924Z,98073.84
2019-01-11T02:56:47.642Z,98067.20
2019-01-11T02:58:54.098Z,98059.27
2019-01-11T03:01:00.737Z,98059.73
2019-01-11T03:03:07.806Z,98059.37
2019-01-11T03:05:15.222Z,98060.52
2019-01-11T03:07:21.852Z,98059.55
2019-01-11T03:09:28.449Z,98049.80
2019-01-11T03:11:35.917Z,98059.83
2019-01-11T03:13:42.740Z,98053.84
2019-01-11T03:15:49.285Z,98054.75
2019-01-11T03:17:57.340Z,98052.05
2019-01-11T03:20:03.824Z,98045.56
2019-01-11T03:22:10.176Z,98051.59
2019-01-11T03:24:16.546Z,98042.13
2019-01-11T03:26:23.450Z,98037.23
2019-01-11T03:28:30.137Z,98033.81
2019-01-11T03:30:36.845Z,98036.00
2019-01-11T03:32:43.249Z,98034.25
2019-01-11T03:35:13.137Z,98030.80
2019-01-11T03:37:19.796Z,98032.89
2019-01-11T03:39:26.311Z,98036.33
2019-01-11T03:41:33.306Z,98036.23
2019-01-11T03:43:39.729Z,98027.20
2019-01-11T03:45:46.028Z,98024.06
2019-01-11T03:47:52.543Z,98024.51
2019-01-11T03:49:59.357Z,98030.12
2019-01-11T03:52:06.022Z,98024.06
2019-01-11T03:54:12.421Z,98024.16
2019-01-11T03:56:18.819Z,98023.33
2019-01-11T03:58:25.499Z,98015.15
2019-01-11T04:00:31.959Z,98028.01
2019-01-11T04:02:38.675Z,98027.89
2019-01-11T04:04:45.055Z,98021.17
2019-01-11T04:06:51.630Z,98021.91
2019-01-11T04:08:58.592Z,98027.14
2019-01-11T04:11:05.170Z,98016.27
2019-01-11T04:13:11.691Z,98017.22
2019-01-11T04:15:19.306Z,98014.36
2019-01-11T04:17:26.671Z,98005.44
2019-01-11T04:19:33.049Z,98010.23
2019-01-11T04:21:41.253Z,98010.64
2019-01-11T04:23:47.644Z,98006.75
2019-01-11T04:25:54.356Z,98008.16
2019-01-11T04:28:00.827Z,98003.02
2019-01-11T04:30:14.231Z,97997.80
2019-01-11T04:32:20.964Z,98001.16
2019-01-11T04:34:27.617Z,98001.89
2019-01-11T04:36:34.660Z,97997.55
2019-01-11T04:38:40.908Z,98003.20
2019-01-11T04:40:47.429Z,97996.72
2019-01-11T04:42:53.961Z,97997.22
2019-01-11T04:45:00.463Z,97995.07
2019-01-11T04:47:07.052Z,97993.55
2019-01-11T04:49:13.508Z,97992.75
2019-01-11T04:51:20.374Z,98001.32
2019-01-11T04:53:26.759Z,97997.44
2019-01-11T04:55:33.175Z,97991.27
2019-01-11T04:57:39.611Z,97990.53
2019-01-11T04:59:45.672Z,97987.09
2019-01-11T05:01:52.261Z,97977.96
2019-01-11T05:03:58.921Z,97981.56
2019-01-11T05:06:05.411Z,97974.36
2019-01-11T05:08:11.965Z,97978.15
2019-01-11T05:10:22.161Z,97970.93
2019-01-11T05:12:29.023Z,97967.10
2019-01-11T05:14:35.609Z,97968.78
2019-01-11T05:16:42.452Z,97962.17
2019-01-11T05:18:49.046Z,97959.13
2019-01-11T05:20:55.430Z,97956.04
2019-01-11T05:23:02.597Z,97958.63
2019-01-11T05:25:09.188Z,97962.00
2019-01-11T05:27:15.713Z,97954.66
2019-01-11T05:29:22.040Z,97958.17
2019-01-11T05:31:28.868Z,97952.34
2019-01-11T05:33:35.370Z,97955.83
2019-01-11T05:35:42.386Z,97947.55
2019-01-11T05:37:49.172Z,97946.68
2019-01-11T05:39:56.043Z,97941.94
2019-01-11T05:42:02.937Z,97938.91
2019-01-11T05:44:09.598Z,97946.19
2019-01-11T05:46:16.418Z,97943.66
2019-01-11T05:48:22.927Z,97939.75
2019-01-11T05:50:29.826Z,97929.63
2019-01-11T05:52:36.361Z,97927.09
2019-01-11T05:54:42.977Z,97922.91
2019-01-11T05:56:49.732Z,97924.35
2019-01-11T05:59:05.201Z,97918.26
2019-01-11T06:01:13.115Z,97921.30
2019-01-11T06:03:19.808Z,97915.73
2019-01-11T06:05:26.138Z,97912.14
2019-01-11T06:07:37.934Z,97908.93
2019-01-11T06:09:45.007Z,97905.37
2019-01-11T06:11:51.845Z,97909.20
2019-01-11T06:13:58.636Z,97906.88
2019-01-11T06:16:06.154Z,97900.73
2019-01-11T06:18:12.725Z,97900.47
2019-01-11T06:20:19.613Z,97895.34
2019-01-11T06:22:26.127Z,97894.50
2019-01-11T06:24:32.827Z,97889.73
2019-01-11T06:26:42.092Z,97890.01
2019-01-11T06:28:48.698Z,97889.71
2019-01-11T06:30:55.777Z,97884.74
2019-01-11T06:33:02.584Z,97884.05
2019-01-11T06:35:10.438Z,97884.13
2019-01-11T06:37:17.179Z,97886.30
2019-01-11T06:39:23.868Z,97884.05
2019-01-11T06:41:39.910Z,97881.87
2019-01-11T06:43:48.245Z,97878.35
2019-01-11T06:45:55.316Z,97873.23
2019-01-11T06:48:03.117Z,97871.22
2019-01-11T06:50:12.566Z,97875.14
2019-01-11T06:52:19.463Z,97878.27
2019-01-11T06:54:25.938Z,97876.20
2019-01-11T06:56:33.098Z,97876.34
2019-01-11T06:58:39.618Z,97876.19
2019-01-11T07:00:46.306Z,97870.38
2019-01-11T07:02:53.314Z,97868.63
2019-01-11T07:05:01.516Z,97866.66
2019-01-11T07:07:08.003Z,97864.67
2019-01-11T07:09:14.846Z,97865.44
2019-01-11T07:11:21.541Z,97861.23
2019-01-11T07:13:28.677Z,97859.03
2019-01-11T07:15:35.448Z,97865.78
2019-01-11T07:17:41.935Z,97858.53
2019-01-11T07:19:48.485Z,97853.19
2019-01-11T07:21:55.961Z,97855.11
2019-01-11T07:24:02.748Z,97858.95
2019-01-11T07:26:12.337Z,97860.62
2019-01-11T07:28:18.988Z,97853.05
2019-01-11T07:30:29.281Z,97857.69
2019-01-11T07:32:36.275Z,97858.14
2019-01-11T07:34:42.987Z,97855.70
2019-01-11T07:36:52.458Z,97858.62
2019-01-11T07:38:59.504Z,97855.31
2019-01-11T07:41:06.170Z,97861.73
2019-01-11T07:43:12.764Z,97856.42
2019-01-11T07:45:19.300Z,97861.53
2019-01-11T07:47:25.756Z,97858.91
2019-01-11T07:49:32.377Z,97863.65
2019-01-11T07:51:39.121Z,97862.13
2019-01-11T07:53:45.787Z,97856.16
2019-01-11T07:55:52.443Z,97856.25
2019-01-11T07:57:59.158Z,97847.44
2019-01-11T08:00:08.391Z,97851.79
2019-01-11T08:02:15.375Z,97848.28
2019-01-11T08:04:21.986Z,97851.22
2019-01-11T08:06:28.703Z,97846.98
2019-01-11T08:08:35.735Z,97843.23
2019-01-11T08:10:42.353Z,97844.30
2019-01-11T08:12:49.565Z,97847.72
2019-01-11T08:14:56.264Z,97854.78
2019-01-11T08:17:03.128Z,97853.11
2019-01-11T08:19:10.051Z,97850.43
2019-01-11T08:21:16.913Z,97848.38
2019-01-11T08:23:23.617Z,97842.47
2019-01-11T08:25:30.076Z,97837.18
2019-01-11T08:27:37.543Z,97839.41
2019-01-11T08:29:44.399Z,97843.48
2019-01-11T08:31:51.510Z,97839.34
2019-01-11T08:33:58.527Z,97838.77
2019-01-11T08:36:05.571Z,97842.13
2019-01-11T08:38:12.166Z,97838.92
2019-01-11T08:40:18.851Z,97844.79
2019-01-11T08:42:25.460Z,97844.09
2019-01-11T08:44:32.103Z,97847.27
2019-01-11T08:46:38.869Z,97850.59
2019-01-11T08:48:45.926Z,97847.94
2019-01-11T08:50:53.067Z,97852.73
2019-01-11T08:52:59.736Z,97849.33
2019-01-11T08:55:06.836Z,97851.29
2019-01-11T08:57:13.293Z,97849.78
2019-01-11T08:59:20.271Z,97844.63
2019-01-11T09:01:27.308Z,97837.70
2019-01-11T09:03:34.021Z,97844.33
2019-01-11T09:05:40.645Z,97841.48
2019-01-11T09:07:47.484Z,97840.22
2019-01-11T09:09:54.130Z,97836.71
2019-01-11T09:12:00.756Z,97839.59
2019-01-11T09:14:09.323Z,97838.11
2019-01-11T09:16:20.692Z,97830.30
2019-01-11T09:18:37.395Z,97828.61
2019-01-11T09:20:44.350Z,97828.97
2019-01-11T09:22:50.970Z,97826.28
2019-01-11T09:24:57.906Z,97826.95
2019-01-11T09:27:04.597Z,97820.34
2019-01-11T09:29:11.062Z,97822.19
2019-01-11T09:31:17.703Z,97829.09
2019-01-11T09:33:24.832Z,97826.50
2019-01-11T09:35:32.182Z,97832.15
2019-01-11T09:37:39.073Z,97828.34
2019-01-11T09:39:45.699Z,97826.41
2019-01-11T09:41:52.709Z,97830.66
2019-01-11T09:43:59.531Z,97817.03
2019-01-11T09:46:06.557Z,97817.58
2019-01-11T09:48:13.325Z,97824.89
2019-01-11T09:50:19.905Z,97823.23
2019-01-11T09:52:26.377Z,97817.03
2019-01-11T09:54:32.854Z,97822.14
2019-01-11T09:56:39.365Z,97814.66
2019-01-11T09:58:46.258Z,97817.49
2019-01-11T10:00:58.983Z,97819.16
2019-01-11T10:03:06.968Z,97820.55
2019-01-11T10:05:13.666Z,97827.16
2019-01-11T10:07:27.824Z,97823.64
2019-01-11T10:09:34.439Z,97830.93
2019-01-11T10:11:41.130Z,97818.98
2019-01-11T10:13:47.860Z,97819.64
2019-01-11T10:15:54.285Z,97817.66
2019-01-11T10:18:00.636Z,97817.49
2019-01-11T10:20:08.961Z,97812.29
2019-01-11T10:22:15.487Z,97814.31
2019-01-11T10:24:22.141Z,97803.34
2019-01-11T10:26:28.957Z,97800.02
2019-01-11T10:28:35.564Z,97807.80
2019-01-11T10:30:42.570Z,97802.98
2019-01-11T10:32:49.805Z,97801.09
2019-01-11T10:34:56.656Z,97797.29
2019-01-11T10:37:03.253Z,97796.87
2019-01-11T10:39:10.283Z,97801.52
2019-01-11T10:41:16.998Z,97791.44
2019-01-11T10:43:23.889Z,97789.58
2019-01-11T10:45:30.551Z,97789.39
2019-01-11T10:47:37.182Z,97786.42
2019-01-11T10:49:43.693Z,97783.81
2019-01-11T10:51:50.140Z,97780.36
2019-01-11T10:53:56.412Z,97780.34
2019-01-11T10:56:03.292Z,97778.10
2019-01-11T10:58:12.083Z,97774.61
2019-01-11T11:00:28.061Z,97777.25
2019-01-11T11:02:35.081Z,97771.41
2019-01-11T11:04:41.626Z,97775.81
2019-01-11T11:06:49.048Z,97763.00
2019-01-11T11:08:55.814Z,97770.46
2019-01-11T11:11:02.224Z,97760.29
2019-01-11T11:13:08.931Z,97766.80
2019-01-11T11:15:16.857Z,97761.31
2019-01-11T11:17:23.490Z,97758.18
2019-01-11T11:19:30.131Z,97758.53
2019-01-11T11:21:37.287Z,97758.49
2019-01-11T11:23:44.319Z,97757.89
2019-01-11T11:25:50.671Z,97745.92
2019-01-11T11:27:57.454Z,97751.03
2019-01-11T11:30:04.794Z,97743.05
2019-01-11T11:32:13.422Z,97746.83
2019-01-11T11:34:29.559Z,97744.12
2019-01-11T11:36:36.502Z,97738.21
2019-01-11T11:38:43.134Z,97734.19
2019-01-11T11:40:50.004Z,97729.66
2019-01-11T11:42:56.512Z,97726.78
2019-01-11T11:45:04.065Z,97723.45
2019-01-11T11:47:10.843Z,97725.41
2019-01-11T11:49:17.798Z,97733.30
2019-01-11T11:51:24.522Z,97721.45
2019-01-11T11:53:31.343Z,97714.05
2019-01-11T11:55:37.926Z,97720.31
2019-01-11T11:57:45.319Z,97713.44
2019-01-11T11:59:53.280Z,97708.12
2019-01-11T12:02:00.424Z,97710.41
2019-01-11T12:04:07.445Z,97704.13
2019-01-11T12:06:14.245Z,97702.81
2019-01-11T12:08:21.034Z,97697.36
2019-01-11T12:10:27.661Z,97695.95
2019-01-11T12:12:35.071Z,97697.45
2019-01-11T12:14:41.717Z,97702.02
2019-01-11T12:16:47.971Z,97685.48
2019-01-11T12:18:54.588Z,97684.89
2019-01-11T12:21:01.212Z,97675.98
2019-01-11T12:23:08.618Z,97680.03
2019-01-11T12:25:15.232Z,97672.45
2019-01-11T12:27:22.074Z,97678.98
2019-01-11T12:29:28.927Z,97672.78
2019-01-11T12:31:36.204Z,97671.95
2019-01-11T12:33:42.976Z,97667.21
2019-01-11T12:35:49.607Z,97671.77
2019-01-11T12:37:56.246Z,97665.91
2019-01-11T12:40:03.196Z,97671.84
2019-01-11T12:42:13.330Z,97672.62
2019-01-11T12:44:19.683Z,97665.38
2019-01-11T12:46:26.551Z,97665.34
2019-01-11T12:48:33.590Z,97667.73
2019-01-11T12:50:40.105Z,97655.05
2019-01-11T12:52:46.572Z,97655.36
2019-01-11T12:54:53.481Z,97656.41
2019-01-11T12:57:00.314Z,97657.47
2019-01-11T12:59:06.938Z,97651.84
2019-01-11T13:01:13.882Z,97649.03
2019-01-11T13:03:20.479Z,97639.11
2019-01-11T13:05:27.330Z,97635.61
2019-01-11T13:07:34.214Z,97634.11
2019-01-11T13:09:41.188Z,97634.55
2019-01-11T13:11:48.088Z,97629.27
2019-01-11T13:13:55.310Z,97626.05
2019-01-11T13:16:04.221Z,97623.44
2019-01-11T13:18:11.261Z,97614.23
2019-01-11T13:20:20.175Z,97615.69
2019-01-11T13:22:26.900Z,97623.07
2019-01-11T13:24:33.194Z,97624.25
2019-01-11T13:26:39.897Z,97616.60
2019-01-11T13:28:46.763Z,97619.73
2019-01-11T13:30:53.600Z,97614.28
2019-01-11T13:33:00.517Z,97616.78
2019-01-11T13:35:07.753Z,97619.22
2019-01-11T13:37:14.316Z,97623.03
2019-01-11T13:39:22.153Z,97627.42
2019-01-11T13:41:29.295Z,97623.27
2019-01-11T13:43:37.115Z,97625.34
2019-01-11T13:45:43.547Z,97622.15
2019-01-11T13:47:50.205Z,97616.09
2019-01-11T13:49:57.099Z,97612.38
2019-01-11T13:52:07.328Z,97614.91
2019-01-11T13:54:14.565Z,97623.00
2019-01-11T13:56:21.132Z,97616.28
2019-01-11T13:58:28.066Z,97625.94
2019-01-11T14:00:35.122Z,97619.38
2019-01-11T14:02:42.195Z,97626.57
2019-01-11T14:04:48.855Z,97613.90
2019-01-11T14:06:55.442Z,97616.64
2019-01-11T14:09:02.370Z,97621.47
2019-01-11T14:11:09.516Z,97620.79
2019-01-11T14:13:16.326Z,97616.75
2019-01-11T14:15:24.109Z,97621.17
2019-01-11T14:17:30.474Z,97617.90
2019-01-11T14:19:37.388Z,97617.86
2019-01-11T14:21:44.286Z,97620.68
2019-01-11T14:23:51.126Z,97614.83
2019-01-11T14:25:57.649Z,97608.34
2019-01-11T14:28:06.822Z,97607.70
2019-01-11T14:30:13.524Z,97603.21
2019-01-11T14:32:20.142Z,97599.61
2019-01-11T14:34:26.552Z,97602.25
2019-01-11T14:36:33.235Z,97595.02
2019-01-11T14:38:40.404Z,97599.64
2019-01-11T14:40:46.710Z,97600.28
2019-01-11T14:42:53.211Z,97597.16
2019-01-11T14:45:00.090Z,97590.80
2019-01-11T14:47:06.642Z,97595.39
2019-01-11T14:49:13.290Z,97595.02
2019-01-11T14:51:21.620Z,97589.12
2019-01-11T14:53:28.498Z,97586.72
2019-01-11T14:55:35.109Z,97589.71
2019-01-11T14:57:41.886Z,97585.97
2019-01-11T14:59:48.344Z,97585.07
2019-01-11T15:01:55.462Z,97586.17
2019-01-11T15:04:02.421Z,97587.23
2019-01-11T15:06:10.689Z,97576.54
2019-01-11T15:08:17.228Z,97583.69
2019-01-11T15:10:24.506Z,97574.09
2019-01-11T15:12:33.031Z,97582.75
2019-01-11T15:14:40.604Z,97578.25
2019-01-11T15:16:47.455Z,97582.47
2019-01-11T15:18:54.253Z,97582.64
2019-01-11T15:21:01.223Z,97575.55
2019-01-11T15:23:13.373Z,97587.25
2019-01-11T15:25:16.805Z,97585.22
2019-01-11T15:27:23.389Z,97580.01
2019-01-11T15:29:30.658Z,97586.94
2019-01-11T15:31:38.393Z,97583.41
2019-01-11T15:33:45.972Z,97588.39
2019-01-11T15:35:53.023Z,97580.85
2019-01-11T15:38:00.331Z,97583.92
2019-01-11T15:40:11.779Z,97574.15
2019-01-11T15:42:18.162Z,97573.27
2019-01-11T15:44:25.035Z,97577.06
2019-01-11T15:46:31.816Z,97570.42
2019-01-11T15:48:50.239Z,97574.88
2019-01-11T15:50:58.294Z,97574.99
2019-01-11T15:53:04.855Z,97571.61
2019-01-11T15:55:12.253Z,97566.28
2019-01-11T15:57:25.137Z,97566.94
2019-01-11T15:59:32.044Z,97560.01
2019-01-11T16:01:39.092Z,97565.56
2019-01-11T16:03:45.705Z,97565.08
2019-01-11T16:06:25.212Z,97571.09
2019-01-11T16:08:31.984Z,97573.73
2019-01-11T16:11:02.289Z,97563.38
2019-01-11T16:13:44.939Z,97567.06
2019-01-11T16:16:22.071Z,97551.88
2019-01-11T16:18:31.014Z,97554.87
2019-01-11T16:20:38.909Z,97564.33
2019-01-11T16:22:45.664Z,97564.25
2019-01-11T16:24:52.366Z,97560.61
2019-01-11T16:26:59.034Z,97561.97
2019-01-11T16:29:05.781Z,97564.49
2019-01-11T16:31:12.631Z,97562.59
2019-01-11T16:33:19.494Z,97567.80
2019-01-11T16:35:26.002Z,97569.70
2019-01-11T16:37:33.142Z,97560.34
2019-01-11T16:39:41.867Z,97562.67
2019-01-11T16:41:49.249Z,97561.16
2019-01-11T16:43:56.201Z,97556.75
2019-01-11T16:46:03.141Z,97565.53
2019-01-11T16:48:10.134Z,97568.50
2019-01-11T16:50:17.371Z,97568.42
2019-01-11T16:52:24.076Z,97564.13
2019-01-11T16:54:30.958Z,97565.94
2019-01-11T16:56:38.123Z,97566.94
2019-01-11T16:58:45.471Z,97564.21
2019-01-11T17:00:52.565Z,97563.48
2019-01-11T17:02:59.300Z,97564.25
2019-01-11T17:05:06.590Z,97560.18
2019-01-11T17:07:14.096Z,97559.77
2019-01-11T17:09:20.441Z,97565.41
2019-01-11T17:11:27.513Z,97567.68
2019-01-11T17:13:40.740Z,97564.21
2019-01-11T17:15:47.615Z,97556.00
2019-01-11T17:17:55.772Z,97558.70
2019-01-11T17:20:02.635Z,97554.87
2019-01-11T17:22:10.965Z,97550.49
2019-01-11T17:24:18.093Z,97558.56
2019-01-11T17:26:25.274Z,97558.80
2019-01-11T17:28:32.305Z,97560.32
2019-01-11T17:30:41.056Z,97561.64
2019-01-11T17:32:47.901Z,97558.57
2019-01-11T17:34:54.600Z,97556.56
2019-01-11T17:37:01.793Z,97561.78
2019-01-11T17:39:10.977Z,97561.87
2019-01-11T17:41:18.120Z,97559.97
2019-01-11T17:43:25.135Z,97562.02
2019-01-11T17:45:32.239Z,97569.72
2019-01-11T17:47:39.401Z,97571.47
2019-01-11T17:49:46.228Z,97571.98
2019-01-11T17:51:53.317Z,97571.70
2019-01-11T17:53:59.940Z,97573.59
2019-01-11T17:56:07.518Z,97568.28
2019-01-11T17:58:14.172Z,97572.53
2019-01-11T18:00:21.362Z,97571.70
2019-01-11T18:02:28.023Z,97572.28
2019-01-11T18:04:34.839Z,97566.95
2019-01-11T18:06:41.631Z,97565.66
2019-01-11T18:08:48.491Z,97563.39
2019-01-11T18:10:55.028Z,97558.77
2019-01-11T18:13:01.660Z,97565.30
2019-01-11T18:15:11.667Z,97564.34
2019-01-11T18:17:19.086Z,97555.68
2019-01-11T18:19:26.134Z,97553.00
2019-01-11T18:21:33.285Z,97549.88
2019-01-11T18:23:40.351Z,97554.51
2019-01-11T18:25:48.570Z,97559.30
2019-01-11T18:27:56.945Z,97561.98
2019-01-11T18:30:06.754Z,97558.41
2019-01-11T18:32:14.099Z,97557.95
2019-01-11T18:34:21.552Z,97547.91
2019-01-11T18:36:28.171Z,97550.64
2019-01-11T18:38:35.227Z,97556.19
2019-01-11T18:40:41.931Z,97563.67
2019-01-11T18:42:48.599Z,97557.86
2019-01-11T18:44:55.598Z,97561.28
2019-01-11T18:47:02.973Z,97562.20
2019-01-11T18:49:09.700Z,97569.23
2019-01-11T18:51:17.245Z,97556.27
2019-01-11T18:53:23.887Z,97559.84
2019-01-11T18:55:30.410Z,97566.33
2019-01-11T18:57:37.438Z,97565.39
2019-01-11T18:59:43.956Z,97563.84
2019-01-11T19:01:51.494Z,97568.64
2019-01-11T19:03:58.613Z,97573.94
2019-01-11T19:06:05.726Z,97572.17
2019-01-11T19:08:12.161Z,97572.55
2019-01-11T19:10:19.584Z,97573.27
2019-01-11T19:12:26.689Z,97572.51
2019-01-11T19:14:34.495Z,97579.80
2019-01-11T19:16:41.318Z,97581.56
2019-01-11T19:18:48.697Z,97578.62
2019-01-11T19:20:55.653Z,97572.05
2019-01-11T19:23:03.136Z,97575.12
2019-01-11T19:25:10.889Z,97566.23
2019-01-11T19:27:17.658Z,97564.63
2019-01-11T19:29:24.496Z,97566.95
2019-01-11T19:31:31.152Z,97569.10
2019-01-11T19:33:37.840Z,97565.78
2019-01-11T19:35:45.481Z,97562.16
2019-01-11T19:37:52.803Z,97570.36
2019-01-11T19:40:01.956Z,97566.32
2019-01-11T19:42:09.656Z,97569.44
2019-01-11T19:44:16.484Z,97566.83
2019-01-11T19:46:23.187Z,97562.08
2019-01-11T19:48:30.257Z,97558.55
2019-01-11T19:50:37.687Z,97557.19
2019-01-11T19:52:44.512Z,97553.87
2019-01-11T19:54:51.289Z,97553.20
2019-01-11T19:57:00.521Z,97560.02
2019-01-11T19:59:07.703Z,97560.35
2019-01-11T20:01:14.848Z,97562.45
2019-01-11T20:03:21.598Z,97570.91
2019-01-11T20:05:28.854Z,97559.97
2019-01-11T20:07:35.519Z,97558.20
2019-01-11T20:09:49.465Z,97553.50
2019-01-11T20:11:56.097Z,97561.61
2019-01-11T20:14:03.027Z,97559.93
2019-01-11T20:16:09.472Z,97561.11
2019-01-11T20:18:16.436Z,97560.19
2019-01-11T20:20:24.964Z,97567.63
2019-01-11T20:22:32.003Z,97564.48
2019-01-11T20:24:40.267Z,97562.79
2019-01-11T20:26:47.194Z,97560.11
2019-01-11T20:28:53.711Z,97569.82
2019-01-11T20:31:00.250Z,97563.97
2019-01-11T20:33:06.846Z,97562.13
2019-01-11T20:35:13.833Z,97551.12
2019-01-11T20:37:28.063Z,97559.27
2019-01-11T20:39:36.254Z,97559.98
2019-01-11T20:41:43.052Z,97557.62
2019-01-11T20:43:49.971Z,97558.88
2019-01-11T20:46:03.188Z,97569.36
2019-01-11T20:48:06.674Z,97573.22
2019-01-11T20:50:18.729Z,97577.95
2019-01-11T20:52:25.650Z,97579.69
2019-01-11T20:54:32.456Z,97582.25
2019-01-11T20:56:39.478Z,97591.38
2019-01-11T20:58:45.939Z,97601.42
2019-01-11T21:00:52.920Z,97599.80
2019-01-11T21:03:00.036Z,97596.39
2019-01-11T21:05:07.185Z,97595.80
2019-01-11T21:07:13.885Z,97604.30
2019-01-11T21:09:20.282Z,97596.14
2019-01-11T21:11:27.012Z,97608.56
2019-01-11T21:13:34.771Z,97614.23
2019-01-11T21:15:41.285Z,97612.94
2019-01-11T21:17:48.479Z,97613.99
2019-01-11T21:19:55.391Z,97606.70
2019-01-11T21:22:02.414Z,97608.00
2019-01-11T21:24:09.435Z,97608.59
2019-01-11T21:26:16.038Z,97605.09
2019-01-11T21:28:22.435Z,97607.25
2019-01-11T21:30:30.867Z,97612.39
2019-01-11T21:32:37.431Z,97610.45
2019-01-11T21:34:44.208Z,97611.84
2019-01-11T21:36:51.080Z,97607.39
2019-01-11T21:38:59.183Z,97608.83
2019-01-11T21:41:05.909Z,97617.19
2019-01-11T21:43:12.530Z,97612.94
2019-01-11T21:45:20.262Z,97612.52
2019-01-11T21:47:27.628Z,97615.92
2019-01-11T21:49:35.379Z,97615.00
2019-01-11T21:51:42.516Z,97617.91
2019-01-11T21:53:55.576Z,97620.19
2019-01-11T21:55:59.026Z,97610.95
2019-01-11T21:58:06.302Z,97609.48
2019-01-11T22:00:41.226Z,97612.14
2019-01-11T22:02:49.688Z,97615.92
2019-01-11T22:04:56.453Z,97615.94
2019-01-11T22:07:03.640Z,97618.62
2019-01-11T22:09:10.503Z,97621.64
2019-01-11T22:11:19.579Z,97614.84
2019-01-11T22:13:27.055Z,97616.59
2019-01-11T22:15:34.663Z,97620.84
2019-01-11T22:17:41.485Z,97608.63
2019-01-11T22:19:48.345Z,97617.64
2019-01-11T22:21:56.384Z,97610.86
2019-01-11T22:24:03.548Z,97616.13
2019-01-11T22:26:11.588Z,97623.13
2019-01-11T22:28:18.793Z,97612.22
2019-01-11T22:30:30.069Z,97609.74
2019-01-11T22:32:34.045Z,97614.06
2019-01-11T22:34:41.236Z,97618.55
2019-01-11T22:36:47.888Z,97618.68
2019-01-11T22:38:54.348Z,97604.50
2019-01-11T22:41:00.863Z,97605.09
2019-01-11T22:43:07.874Z,97601.58
2019-01-11T22:45:18.453Z,97605.25
2019-01-11T22:47:25.388Z,97605.44
2019-01-11T22:49:32.022Z,97606.38
2019-01-11T22:51:38.910Z,97609.11
2019-01-11T22:53:45.323Z,97602.77
2019-01-11T22:55:52.510Z,97606.49
2019-01-11T22:58:00.126Z,97609.79
2019-01-11T23:00:17.305Z,97614.47
2019-01-11T23:02:41.961Z,97613.59
2019-01-11T23:04:48.421Z,97612.09
2019-01-11T23:06:59.020Z,97608.92
2019-01-11T23:09:09.883Z,97601.95
2019-01-11T23:11:50.599Z,97606.19
2019-01-11T23:13:57.258Z,97607.58
2019-01-11T23:16:18.104Z,97607.03
2019-01-11T23:18:26.485Z,97598.16
2019-01-11T23:20:33.587Z,97593.36
2019-01-11T23:22:40.181Z,97598.41
2019-01-11T23:24:47.118Z,97604.57
2019-01-11T23:26:53.777Z,97606.46
2019-01-11T23:29:00.373Z,97605.19
2019-01-11T23:31:06.797Z,97598.41
2019-01-11T23:33:13.431Z,97599.48
2019-01-11T23:35:20.197Z,97603.72
2019-01-11T23:37:27.377Z,97607.47
2019-01-11T23:39:33.933Z,97607.87
2019-01-11T23:41:41.145Z,97605.48
2019-01-11T23:43:47.897Z,97609.19
2019-01-11T23:45:55.146Z,97603.23
2019-01-11T23:48:02.029Z,97612.72
2019-01-11T23:50:11.165Z,97611.94
2019-01-11T23:52:17.625Z,97620.55
2019-01-11T23:54:24.680Z,97613.44
2019-01-11T23:56:31.802Z,97610.27
2019-01-11T23:58:38.339Z,97607.91
